M I D A S
Marine Information and Data Acquisition System
Tripno 717 of the Zeeleeuw from 2004-05-14 06:12:26 to 2004-05-14 14:22:56
Back to CruiseResearch ActivitiesStationsMapUnderway DataData graphs

EquipmentUnitsComment
TimeDGPSUTC
LatitudeDGPSDM.mWGS84
LongitudeDGPSDM.mWGS84
HeadingGyrodeg 
SOGDGPSknotsSpeed over ground
COGDGPSdegCourse over ground
DepthEcho soundermeters200 kHz
Missing or incorrect values are displayed as -999
Navigation data collected by the RV Zeeleeuw from 2004-05-14 06:12:26 to 2004-05-14 14:22:56
                                                                                    Next 1000 lines
Time Latitude Longitude Heading SOG COG Depth
2004-05-14 06:12:35 51°13.67 2°55.812 105.7 5.2 284 -999
2004-05-14 06:12:40 51°13.672 2°55.801 104.2 5.2 281 -999
2004-05-14 06:12:45 51°13.673 2°55.789 102 5.2 280 -999
2004-05-14 06:12:50 51°13.674 2°55.779 100.4 5 279 -999
2004-05-14 06:12:54 51°13.675 2°55.771 98.4 4.5 278 -999
2004-05-14 06:13:00 51°13.675 2°55.76 97.2 3.8 276 -999
2004-05-14 06:13:05 51°13.676 2°55.753 95.2 3.2 278 -999
2004-05-14 06:13:09 51°13.676 2°55.749 92.9 2.4 271 11.6
2004-05-14 06:13:12 51°13.676 2°55.747 89.6 1.6 277 12
2004-05-14 06:13:20 51°13.677 2°55.745 83.8 0.8 288 12.3
2004-05-14 06:13:25 51°13.677 2°55.745 78.6 0.6 4 12.6
2004-05-14 06:13:29 51°13.678 2°55.746 71.9 0.9 35 13.1
2004-05-14 06:13:34 51°13.68 2°55.748 63.2 1.4 38 13.2
2004-05-14 06:13:40 51°13.683 2°55.751 56.3 1.9 35 13.4
2004-05-14 06:13:44 51°13.686 2°55.754 47.2 2.7 26 13.3
2004-05-14 06:13:49 51°13.69 2°55.756 38 3.1 20 13.3
2004-05-14 06:13:54 51°13.695 2°55.758 27 3.5 14 13.3
2004-05-14 06:13:59 51°13.7 2°55.758 19.7 3.7 7 13.4
2004-05-14 06:14:04 51°13.706 2°55.758 10.8 4.3 354 13.3
2004-05-14 06:14:08 51°13.711 2°55.756 1.9 4.5 347 13.2
2004-05-14 06:14:14 51°13.718 2°55.752 352.6 4.7 340 12.6
2004-05-14 06:14:20 51°13.725 2°55.745 343.2 5.1 330 11.6
2004-05-14 06:14:24 51°13.73 2°55.739 333.8 5.2 322 10.4
2004-05-14 06:14:30 51°13.736 2°55.731 327.3 5 322 10
2004-05-14 06:14:34 51°13.741 2°55.725 325.3 4.9 322 10.1
2004-05-14 06:14:40 51°13.748 2°55.717 325.5 5.1 321 9.9
2004-05-14 06:14:45 51°13.754 2°55.71 328 5.5 326 9.9
2004-05-14 06:14:49 51°13.759 2°55.705 330.9 5.7 326 9.8
2004-05-14 06:14:54 51°13.766 2°55.698 333.2 5.9 329 10.1
2004-05-14 06:14:59 51°13.774 2°55.691 335 6.1 330 9.8
2004-05-14 06:15:04 51°13.781 2°55.685 336.1 6.3 331 9.7
2004-05-14 06:15:09 51°13.789 2°55.678 336.6 6.5 331 9.5
2004-05-14 06:15:14 51°13.797 2°55.671 336.6 6.6 332 9.6
2004-05-14 06:15:19 51°13.805 2°55.664 336.6 6.7 331 10.1
2004-05-14 06:15:25 51°13.815 2°55.655 336.6 6.8 332 10
2004-05-14 06:15:30 51°13.824 2°55.648 336.6 6.9 331 10.1
2004-05-14 06:15:34 51°13.831 2°55.642 336.9 7.1 333 10.1
2004-05-14 06:15:40 51°13.841 2°55.634 337.6 7.1 333 10.1
2004-05-14 06:15:44 51°13.849 2°55.628 338.4 7.2 334 9.9
2004-05-14 06:15:49 51°13.858 2°55.621 339.2 7.3 334 9.8
2004-05-14 06:15:53 51°13.865 2°55.615 339.4 7.3 334 9.9
2004-05-14 06:16:00 51°13.878 2°55.605 339.6 7.4 335 10
2004-05-14 06:16:04 51°13.886 2°55.6 339.8 7.5 335 10.1
2004-05-14 06:16:09 51°13.895 2°55.593 340 7.5 335 9.9
2004-05-14 06:16:14 51°13.905 2°55.586 340.1 7.6 335 9.9
2004-05-14 06:16:20 51°13.916 2°55.577 340.2 7.6 335 9.8
2004-05-14 06:16:24 51°13.924 2°55.571 340.2 7.7 336 10
2004-05-14 06:16:29 51°13.934 2°55.564 340.5 7.7 336 10.3
2004-05-14 06:16:34 51°13.944 2°55.557 340.9 7.8 336 10.6
2004-05-14 06:16:40 51°13.955 2°55.549 340.7 7.8 336 10.9
2004-05-14 06:16:44 51°13.963 2°55.543 340 7.9 335 11
2004-05-14 06:16:48 51°13.971 2°55.537 339.8 7.9 335 11.1
2004-05-14 06:16:54 51°13.983 2°55.528 339.7 7.9 335 11.3
2004-05-14 06:17:00 51°13.995 2°55.519 339.6 8 335 11.7
2004-05-14 06:17:04 51°14.004 2°55.512 339.5 8.1 334 11.6
2004-05-14 06:17:09 51°14.014 2°55.504 339.5 8.1 334 11.4
2004-05-14 06:17:13 51°14.022 2°55.498 339.5 8.2 334 11.2
2004-05-14 06:17:20 51°14.036 2°55.487 339.7 8.2 334 11.4
2004-05-14 06:17:24 51°14.044 2°55.481 340 8.3 334 11.3
2004-05-14 06:17:28 51°14.053 2°55.474 340.1 8.5 334 11.3
2004-05-14 06:17:34 51°14.066 2°55.464 339.9 8.7 334 11.4
2004-05-14 06:17:40 51°14.079 2°55.454 340.2 8.8 334 11.3
2004-05-14 06:17:45 51°14.09 2°55.446 340.6 9 335 11.3
2004-05-14 06:17:50 51°14.102 2°55.437 341.1 9.1 335 11.5
2004-05-14 06:17:54 51°14.111 2°55.43 341.3 9.2 335 11.3
2004-05-14 06:18:00 51°14.125 2°55.42 341 9.3 335 11.3
2004-05-14 06:18:04 51°14.134 2°55.412 340.2 9.4 333 11.3
2004-05-14 06:18:09 51°14.146 2°55.403 339.3 9.6 333 11.4
2004-05-14 06:18:14 51°14.158 2°55.392 338.2 9.8 332 11.3
2004-05-14 06:18:20 51°14.172 2°55.379 336.9 9.9 331 11.3
2004-05-14 06:18:25 51°14.184 2°55.368 336.4 10.2 330 11.3
2004-05-14 06:18:30 51°14.196 2°55.356 335.9 10.3 329 11.3
2004-05-14 06:18:34 51°14.206 2°55.347 334.8 10.4 328 11.3
2004-05-14 06:18:39 51°14.218 2°55.334 333.6 10.5 327 11.3
2004-05-14 06:18:44 51°14.23 2°55.32 330.8 10.7 322 11.3
2004-05-14 06:18:50 51°14.244 2°55.301 328 10.8 320 11.3
2004-05-14 06:18:54 51°14.253 2°55.288 325.3 10.9 318 11.3
2004-05-14 06:19:00 51°14.266 2°55.267 322.9 11 317 11.3
2004-05-14 06:19:04 51°14.275 2°55.254 321.7 11.2 315 11.5
2004-05-14 06:19:08 51°14.283 2°55.239 320.5 11.2 314 11.3
2004-05-14 06:19:14 51°14.296 2°55.217 318.4 11.3 312 11.1
2004-05-14 06:19:19 51°14.307 2°55.197 317.1 11.3 311 11.2
2004-05-14 06:19:25 51°14.319 2°55.174 316.3 11.4 310 11.1
2004-05-14 06:19:29 51°14.327 2°55.158 315.6 11.5 310 10.9
2004-05-14 06:19:35 51°14.34 2°55.134 315 11.7 310 11.2
2004-05-14 06:19:40 51°14.35 2°55.115 315 11.7 310 10.9
2004-05-14 06:19:44 51°14.358 2°55.099 315 11.8 311 10.8
2004-05-14 06:19:49 51°14.37 2°55.079 315.5 12 311 11.1
2004-05-14 06:19:54 51°14.381 2°55.059 316 12.3 312 11.3
2004-05-14 06:19:59 51°14.393 2°55.038 316.7 12.6 313 11.4
2004-05-14 06:20:05 51°14.408 2°55.015 318.1 12.9 316 11.4
2004-05-14 06:20:09 51°14.419 2°55 321.9 13 319 11.3
2004-05-14 06:20:14 51°14.434 2°54.982 324.6 13.1 322 11.2
2004-05-14 06:20:19 51°14.447 2°54.963 325.1 13.3 319 11
2004-05-14 06:20:24 51°14.462 2°54.945 325.5 13.3 323 10.7
2004-05-14 06:20:29 51°14.477 2°54.927 326.7 13.3 322 10.5
2004-05-14 06:20:33 51°14.489 2°54.913 327.4 13.4 324 10.3
2004-05-14 06:20:40 51°14.509 2°54.889 328.4 13.4 324 10.3
2004-05-14 06:20:45 51°14.525 2°54.872 329 13.4 325 10.3
2004-05-14 06:20:48 51°14.534 2°54.861 329.9 13.4 326 10.3
2004-05-14 06:20:54 51°14.552 2°54.842 330.7 13.4 326 10.2
2004-05-14 06:21:00 51°14.571 2°54.822 331 13.5 326 10.3
2004-05-14 06:21:04 51°14.583 2°54.809 331.7 13.6 326 10.3
2004-05-14 06:21:09 51°14.599 2°54.792 332 13.6 327 10.5
2004-05-14 06:21:14 51°14.614 2°54.775 331.8 13.5 326 10
2004-05-14 06:21:20 51°14.633 2°54.755 331.2 13.4 326 10.1
2004-05-14 06:21:25 51°14.649 2°54.739 331.5 13.5 326 10
2004-05-14 06:21:30 51°14.664 2°54.722 331.6 13.5 326 10.1
2004-05-14 06:21:34 51°14.676 2°54.709 331.9 13.5 326 10.1
2004-05-14 06:21:39 51°14.692 2°54.692 331.9 13.5 326 10.1
2004-05-14 06:21:44 51°14.708 2°54.676 332.1 13.5 326 10.3
2004-05-14 06:21:50 51°14.726 2°54.656 332.2 13.5 326 10.1
2004-05-14 06:21:54 51°14.739 2°54.642 331.9 13.5 326 10.1
2004-05-14 06:22:00 51°14.757 2°54.622 331.7 13.6 326 10
2004-05-14 06:22:04 51°14.77 2°54.609 331.6 13.6 326 10.1
2004-05-14 06:22:08 51°14.782 2°54.595 331.8 13.5 326 10.1
2004-05-14 06:22:14 51°14.801 2°54.575 332.2 13.5 326 10.1
2004-05-14 06:22:20 51°14.819 2°54.555 332.2 13.5 326 10.1
2004-05-14 06:22:25 51°14.834 2°54.538 331.6 13.4 325 9.8
2004-05-14 06:22:29 51°14.847 2°54.524 331.6 13.4 325 10
2004-05-14 06:22:34 51°14.862 2°54.507 331.6 13.5 325 10
2004-05-14 06:22:39 51°14.877 2°54.491 331.7 13.5 326 9.8
2004-05-14 06:22:44 51°14.893 2°54.474 332.5 13.4 327 9.8
2004-05-14 06:22:50 51°14.912 2°54.455 332.7 13.4 327 9.6
2004-05-14 06:22:54 51°14.924 2°54.441 332.6 13.4 325 9.6
2004-05-14 06:22:59 51°14.939 2°54.424 332.1 13.5 325 9.3
2004-05-14 06:23:04 51°14.954 2°54.407 331.6 13.3 324 9.3
2004-05-14 06:23:10 51°14.972 2°54.386 331.1 13.3 324 9.1
2004-05-14 06:23:14 51°14.984 2°54.373 331 13.3 325 9.1
2004-05-14 06:23:19 51°15 2°54.357 331.6 13.3 326 9.1
2004-05-14 06:23:25 51°15.018 2°54.337 332.4 13.3 326 9
2004-05-14 06:23:29 51°15.03 2°54.324 332.5 13.3 326 9.1
2004-05-14 06:23:35 51°15.048 2°54.304 332.6 13.3 326 9.1
2004-05-14 06:23:40 51°15.063 2°54.287 332.4 13.3 325 9.1
2004-05-14 06:23:45 51°15.078 2°54.27 332.2 13.4 325 9.1
2004-05-14 06:23:49 51°15.091 2°54.257 331.9 13.4 326 9.2
2004-05-14 06:23:54 51°15.106 2°54.24 332 13.4 326 9.2
2004-05-14 06:24:00 51°15.124 2°54.22 332.2 13.4 326 9.3
2004-05-14 06:24:05 51°15.14 2°54.203 332.2 13.5 325 9.5
2004-05-14 06:24:09 51°15.152 2°54.189 332.2 13.5 325 9.5
2004-05-14 06:24:13 51°15.164 2°54.176 332 13.5 325 9.5
2004-05-14 06:24:20 51°15.186 2°54.152 332 13.6 325 9.6
2004-05-14 06:24:24 51°15.198 2°54.138 332 13.6 325 9.5
2004-05-14 06:24:28 51°15.211 2°54.125 332.1 13.6 325 9.7
2004-05-14 06:24:35 51°15.233 2°54.101 332.2 13.6 326 9.7
2004-05-14 06:24:39 51°15.245 2°54.088 332.4 13.6 326 9.7
2004-05-14 06:24:44 51°15.261 2°54.071 332.6 13.6 326 9.8
2004-05-14 06:24:48 51°15.273 2°54.058 333 13.6 326 9.9
2004-05-14 06:24:54 51°15.292 2°54.038 333 13.6 326 9.9
2004-05-14 06:24:58 51°15.305 2°54.024 333 13.6 326 10
2004-05-14 06:25:05 51°15.327 2°54 332.7 13.6 326 10.1
2004-05-14 06:25:08 51°15.336 2°53.99 332.3 13.6 325 10.2
2004-05-14 06:25:14 51°15.354 2°53.969 331.9 13.6 325 10.5
2004-05-14 06:25:19 51°15.37 2°53.952 331.9 13.6 325 10.4
2004-05-14 06:25:24 51°15.386 2°53.935 332 13.6 326 10.4
2004-05-14 06:25:29 51°15.401 2°53.918 332.4 13.5 326 10.4
2004-05-14 06:25:34 51°15.417 2°53.901 332.5 13.6 326 10.5
2004-05-14 06:25:39 51°15.432 2°53.884 332.7 13.6 325 10.5
2004-05-14 06:25:44 51°15.448 2°53.868 332.6 13.6 325 10.5
2004-05-14 06:25:48 51°15.46 2°53.854 332.4 13.5 325 10.6
2004-05-14 06:25:54 51°15.479 2°53.833 332 13.5 326 10.8
2004-05-14 06:26:00 51°15.497 2°53.813 332.3 13.5 325 10.9
2004-05-14 06:26:05 51°15.513 2°53.796 332.2 13.5 325 10.9
2004-05-14 06:26:10 51°15.528 2°53.779 332.3 13.5 326 10.9
2004-05-14 06:26:14 51°15.541 2°53.766 332.4 13.5 326 11
2004-05-14 06:26:19 51°15.556 2°53.749 332.5 13.6 326 11.2
2004-05-14 06:26:24 51°15.572 2°53.732 332.6 13.5 326 11.2
2004-05-14 06:26:30 51°15.59 2°53.711 332.7 13.6 325 11.3
2004-05-14 06:26:34 51°15.603 2°53.698 332.4 13.6 325 11.3
2004-05-14 06:26:40 51°15.621 2°53.677 332.3 13.5 325 11.4
2004-05-14 06:26:44 51°15.633 2°53.663 332 13.5 324 11.5
2004-05-14 06:26:50 51°15.651 2°53.642 331.8 13.6 324 11.6
2004-05-14 06:26:54 51°15.664 2°53.628 331.7 13.6 324 11.6
2004-05-14 06:27:00 51°15.682 2°53.608 331.9 13.5 325 11.6
2004-05-14 06:27:05 51°15.697 2°53.591 332.2 13.4 325 11.8
2004-05-14 06:27:08 51°15.706 2°53.58 332.4 13.4 325 11.7
2004-05-14 06:27:14 51°15.724 2°53.56 332.4 13.4 325 11.8
2004-05-14 06:27:20 51°15.743 2°53.539 332.5 13.3 325 12
2004-05-14 06:27:23 51°15.752 2°53.529 332.6 13.4 324 12
2004-05-14 06:27:29 51°15.77 2°53.508 332.4 13.4 324 11.8
2004-05-14 06:27:34 51°15.785 2°53.491 332 13.4 324 12
2004-05-14 06:27:39 51°15.8 2°53.474 332 13.5 325 12
2004-05-14 06:27:45 51°15.819 2°53.453 332 13.5 325 12.1
2004-05-14 06:27:49 51°15.831 2°53.44 332.3 13.5 326 12.1
2004-05-14 06:27:54 51°15.847 2°53.423 332.6 13.5 326 12.2
2004-05-14 06:28:00 51°15.866 2°53.403 333 13.5 327 12.1
2004-05-14 06:28:05 51°15.881 2°53.387 333 13.6 327 12.3
2004-05-14 06:28:10 51°15.897 2°53.371 332.7 13.6 327 12.3
2004-05-14 06:28:14 51°15.91 2°53.36 334.1 13.5 331 12.3
2004-05-14 06:28:20 51°15.93 2°53.344 337.4 13.5 333 12.2
2004-05-14 06:28:24 51°15.944 2°53.335 340.2 13.4 338 12.3
2004-05-14 06:28:30 51°15.965 2°53.323 343 13.4 339 12.4
2004-05-14 06:28:34 51°15.979 2°53.315 344.9 13.4 340 12.4
2004-05-14 06:28:40 51°16.001 2°53.303 346.3 13.4 341 12.5
2004-05-14 06:28:44 51°16.015 2°53.296 346.9 13.5 342 12.6
2004-05-14 06:28:50 51°16.036 2°53.285 347.6 13.5 342 12.6
2004-05-14 06:28:54 51°16.05 2°53.277 347.8 13.5 342 12.6
2004-05-14 06:28:59 51°16.068 2°53.266 346.5 13.5 339 12.6
2004-05-14 06:29:05 51°16.089 2°53.253 345.1 13.5 338 12.8
2004-05-14 06:29:08 51°16.099 2°53.246 344 13.5 337 12.7
2004-05-14 06:29:14 51°16.12 2°53.232 343 13.5 337 12.7
2004-05-14 06:29:20 51°16.14 2°53.218 342.6 13.5 337 12.8
2004-05-14 06:29:25 51°16.157 2°53.206 341.8 13.5 336 12.9
2004-05-14 06:29:29 51°16.171 2°53.196 341.6 13.5 336 12.8
2004-05-14 06:29:34 51°16.188 2°53.183 341.4 13.5 336 12.9
2004-05-14 06:29:39 51°16.205 2°53.171 341.3 13.5 336 12.8
2004-05-14 06:29:45 51°16.226 2°53.157 341.3 13.5 337 12.9
2004-05-14 06:29:50 51°16.243 2°53.145 341.8 13.5 337 12.9
2004-05-14 06:29:54 51°16.257 2°53.136 342.3 13.6 337 12.9
2004-05-14 06:30:00 51°16.278 2°53.121 342.3 13.5 337 13
2004-05-14 06:30:05 51°16.295 2°53.109 341.8 13.5 336 12.9
2004-05-14 06:30:08 51°16.305 2°53.102 341.4 13.5 337 13
2004-05-14 06:30:12 51°16.319 2°53.092 341.6 13.5 336 13
2004-05-14 06:30:20 51°16.346 2°53.073 341.8 13.6 336 12.9
2004-05-14 06:30:24 51°16.36 2°53.063 341.5 13.5 335 12.8
2004-05-14 06:30:30 51°16.38 2°53.049 341.1 13.5 336 13
2004-05-14 06:30:34 51°16.394 2°53.039 341.2 13.4 336 13
2004-05-14 06:30:38 51°16.408 2°53.03 341.7 13.5 337 12.9
2004-05-14 06:30:44 51°16.429 2°53.016 342 13.5 337 12.9
2004-05-14 06:30:49 51°16.446 2°53.004 342 13.5 336 13
2004-05-14 06:30:54 51°16.462 2°52.991 341.7 13.5 336 12.9
2004-05-14 06:31:00 51°16.482 2°52.976 341.4 13.5 335 12.7
2004-05-14 06:31:04 51°16.496 2°52.966 341.1 13.5 335 12.8
2004-05-14 06:31:10 51°16.516 2°52.951 340.9 13.4 335 12.7
2004-05-14 06:31:14 51°16.53 2°52.942 341.1 13.4 336 12.5
2004-05-14 06:31:20 51°16.55 2°52.928 341.8 13.4 336 12.5
2004-05-14 06:31:25 51°16.567 2°52.915 341.8 13.3 335 12.6
2004-05-14 06:31:30 51°16.584 2°52.903 341.2 13.3 335 12.5
2004-05-14 06:31:34 51°16.597 2°52.893 341.2 13.2 335 12.2
2004-05-14 06:31:40 51°16.617 2°52.878 341.5 13.3 335 12.1
2004-05-14 06:31:44 51°16.63 2°52.868 341.6 13.3 335 12
2004-05-14 06:31:50 51°16.65 2°52.854 341.4 13.3 336 12.1
2004-05-14 06:31:54 51°16.664 2°52.844 341.6 13.3 335 11.9
2004-05-14 06:31:59 51°16.68 2°52.831 341.6 13.2 335 11.9
2004-05-14 06:32:04 51°16.697 2°52.819 341.6 13.3 334 11.7
2004-05-14 06:32:10 51°16.717 2°52.804 341.1 13.3 335 11.4
2004-05-14 06:32:15 51°16.733 2°52.791 341.2 13.2 334 11.2
2004-05-14 06:32:20 51°16.75 2°52.779 341.1 13.2 334 11
2004-05-14 06:32:25 51°16.766 2°52.766 341.1 13.2 335 10.6
2004-05-14 06:32:28 51°16.776 2°52.759 341.6 13.1 336 10.4
2004-05-14 06:32:32 51°16.789 2°52.75 343.1 13 337 10.3
2004-05-14 06:32:40 51°16.816 2°52.734 344.5 13 339 10.4
2004-05-14 06:32:45 51°16.834 2°52.725 346.1 13 341 10.3
2004-05-14 06:32:48 51°16.844 2°52.719 347.2 13 342 10
2004-05-14 06:32:54 51°16.865 2°52.709 348.2 13.1 343 10.2
2004-05-14 06:33:00 51°16.885 2°52.698 348.7 13.1 343 10.1
2004-05-14 06:33:05 51°16.903 2°52.689 348.8 13.1 342 10.1
2004-05-14 06:33:09 51°16.916 2°52.682 348.8 13.1 342 10.4
2004-05-14 06:33:14 51°16.934 2°52.673 348.3 13.1 342 10.4
2004-05-14 06:33:20 51°16.954 2°52.661 347.9 13.2 340 10.5
2004-05-14 06:33:24 51°16.968 2°52.653 347.5 13.2 340 10.6
2004-05-14 06:33:29 51°16.985 2°52.644 347.2 13.2 340 10.6
2004-05-14 06:33:34 51°17.003 2°52.634 347.3 13.2 340 10.7
2004-05-14 06:33:40 51°17.023 2°52.622 347.6 13.2 340 10.6
2004-05-14 06:33:44 51°17.037 2°52.614 347.6 13.1 341 10.6
2004-05-14 06:33:48 51°17.051 2°52.607 348 13.1 342 10.2
2004-05-14 06:33:54 51°17.072 2°52.596 348.3 13.1 342 10.4
2004-05-14 06:34:00 51°17.092 2°52.585 348.4 13.1 342 10.2
2004-05-14 06:34:05 51°17.109 2°52.576 348.6 13.1 341 10.3
2004-05-14 06:34:09 51°17.123 2°52.569 348.3 13.1 341 10.3
2004-05-14 06:34:14 51°17.14 2°52.559 347.9 13.1 341 10.3
2004-05-14 06:34:20 51°17.161 2°52.549 347.9 13.1 341 10.4
2004-05-14 06:34:24 51°17.175 2°52.543 349.4 12.9 345 10.4
2004-05-14 06:34:30 51°17.196 2°52.535 351.4 13 347 10.4
2004-05-14 06:34:34 51°17.21 2°52.53 353.1 13 347 10.6
2004-05-14 06:34:40 51°17.231 2°52.523 354.1 13 348 10.7
2004-05-14 06:34:45 51°17.249 2°52.517 354.8 13.1 349 10.7
2004-05-14 06:34:49 51°17.263 2°52.513 355.4 13 350 10.8
2004-05-14 06:34:54 51°17.281 2°52.507 355.9 13.1 349 10.9
2004-05-14 06:35:00 51°17.302 2°52.501 355.7 13.1 349 10.8
2004-05-14 06:35:04 51°17.317 2°52.496 355.6 13 348 11
2004-05-14 06:35:10 51°17.338 2°52.489 354.9 13 348 10.9
2004-05-14 06:35:15 51°17.355 2°52.483 354.9 13 348 10.8
2004-05-14 06:35:20 51°17.373 2°52.477 354.8 13.1 348 10.8
2004-05-14 06:35:24 51°17.387 2°52.472 354.7 13 348 11
2004-05-14 06:35:30 51°17.408 2°52.465 354.9 13 349 10.9
2004-05-14 06:35:34 51°17.423 2°52.461 355.2 13 350 11.3
2004-05-14 06:35:40 51°17.444 2°52.454 355.5 13 349 11.1
2004-05-14 06:35:45 51°17.462 2°52.449 355.5 12.9 349 11.1
2004-05-14 06:35:49 51°17.476 2°52.444 355.1 12.9 348 11
2004-05-14 06:35:53 51°17.49 2°52.44 355.1 13 348 11.2
2004-05-14 06:36:00 51°17.515 2°52.431 354.9 13 348 11.2
2004-05-14 06:36:05 51°17.532 2°52.425 354.6 13.1 348 11.1
2004-05-14 06:36:09 51°17.546 2°52.42 354.4 13 347 11.3
2004-05-14 06:36:14 51°17.564 2°52.414 354.7 13 348 11.3
2004-05-14 06:36:20 51°17.586 2°52.407 354.9 13 348 11.1
2004-05-14 06:36:25 51°17.603 2°52.402 354.9 13.1 349 11.2
2004-05-14 06:36:30 51°17.621 2°52.396 355.3 13.1 349 11.2
2004-05-14 06:36:34 51°17.636 2°52.392 355.6 13.1 350 11
2004-05-14 06:36:40 51°17.657 2°52.386 355.6 13.2 349 11.1
2004-05-14 06:36:44 51°17.671 2°52.381 355.1 13.1 348 11.1
2004-05-14 06:36:48 51°17.685 2°52.376 354.7 13.1 348 11.3
2004-05-14 06:36:54 51°17.706 2°52.369 354.1 13.1 348 11.1
2004-05-14 06:37:00 51°17.728 2°52.362 354.2 13.1 348 11.2
2004-05-14 06:37:05 51°17.745 2°52.356 354.5 13.1 349 11.2
2004-05-14 06:37:09 51°17.76 2°52.352 355.1 13.1 349 11.2
2004-05-14 06:37:14 51°17.778 2°52.346 355.1 13.2 349 11.2
2004-05-14 06:37:20 51°17.799 2°52.339 354.9 13.2 349 11.1
2004-05-14 06:37:24 51°17.813 2°52.336 355.4 13 352 11.2
2004-05-14 06:37:30 51°17.835 2°52.331 357 13 352 11.2
2004-05-14 06:37:34 51°17.849 2°52.329 358.5 13 354 11.2
2004-05-14 06:37:40 51°17.871 2°52.325 359.6 13.1 354 11.3
2004-05-14 06:37:44 51°17.885 2°52.324 0.7 13.1 356 11.1
2004-05-14 06:37:48 51°17.9 2°52.323 2.1 13 359 11.2
2004-05-14 06:37:54 51°17.922 2°52.325 5.7 13 3 11.2
2004-05-14 06:38:00 51°17.943 2°52.329 8.6 13 4 11.3
2004-05-14 06:38:05 51°17.961 2°52.332 11.4 13.1 7 11.3
2004-05-14 06:38:10 51°17.979 2°52.337 12.8 13 9 11.4
2004-05-14 06:38:14 51°17.993 2°52.341 14.5 13 10 11.4
2004-05-14 06:38:19 51°18.011 2°52.346 15.2 13 10 11.4
2004-05-14 06:38:24 51°18.029 2°52.352 16.2 13.2 12 11.4
2004-05-14 06:38:29 51°18.047 2°52.359 17.7 13.2 13 11.5
2004-05-14 06:38:34 51°18.064 2°52.366 19 13.1 15 11.5
2004-05-14 06:38:40 51°18.085 2°52.375 20 13.1 15 11.5
2004-05-14 06:38:45 51°18.103 2°52.382 20.3 13.2 15 11.5
2004-05-14 06:38:50 51°18.12 2°52.39 20.3 13.1 15 11.5
2004-05-14 06:38:54 51°18.134 2°52.396 20.8 13.1 16 11.5
2004-05-14 06:39:00 51°18.156 2°52.405 21 13.1 15 11.6
2004-05-14 06:39:04 51°18.17 2°52.411 20.7 13.2 15 11.6
2004-05-14 06:39:09 51°18.187 2°52.419 20.4 13.1 15 11.7
2004-05-14 06:39:15 51°18.208 2°52.427 20.1 13.1 14 11.7
2004-05-14 06:39:20 51°18.226 2°52.434 19.6 13.1 14 11.8
2004-05-14 06:39:24 51°18.24 2°52.44 19.5 13.2 13 11.7
2004-05-14 06:39:30 51°18.262 2°52.448 19.2 13.2 14 11.7
2004-05-14 06:39:34 51°18.276 2°52.454 19.3 13.1 14 11.9
2004-05-14 06:39:40 51°18.297 2°52.463 19.9 13.1 15 11.8
2004-05-14 06:39:44 51°18.311 2°52.469 20.2 13.1 14 11.8
2004-05-14 06:39:48 51°18.325 2°52.474 20.2 13.1 14 11.8
2004-05-14 06:39:55 51°18.35 2°52.484 19.5 13.1 14 11.9
2004-05-14 06:39:59 51°18.364 2°52.49 19.4 13.1 14 11.9
2004-05-14 06:40:04 51°18.382 2°52.496 19.4 13.2 14 11.9
2004-05-14 06:40:09 51°18.4 2°52.503 19.3 13.2 13 12
2004-05-14 06:40:14 51°18.417 2°52.51 19.1 13.2 14 12
2004-05-14 06:40:20 51°18.439 2°52.518 19.2 13.2 13 12.1
2004-05-14 06:40:25 51°18.456 2°52.524 19.1 13.2 13 12.1
2004-05-14 06:40:30 51°18.474 2°52.531 18.9 13.2 13 12.1
2004-05-14 06:40:34 51°18.489 2°52.536 18.9 13.2 13 12.1
2004-05-14 06:40:40 51°18.51 2°52.545 18.7 13.1 13 12.2
2004-05-14 06:40:45 51°18.528 2°52.551 19 13.2 14 12.2
2004-05-14 06:40:49 51°18.542 2°52.557 19.2 13.2 13 12.3
2004-05-14 06:40:54 51°18.559 2°52.563 18.6 13.1 13 12.3
2004-05-14 06:41:00 51°18.581 2°52.571 18.8 13.1 14 12.3
2004-05-14 06:41:05 51°18.598 2°52.578 18.9 13.1 13 12.3
2004-05-14 06:41:09 51°18.613 2°52.583 18.8 13.1 14 12.3
2004-05-14 06:41:14 51°18.63 2°52.59 18.8 13.1 13 12.5
2004-05-14 06:41:19 51°18.648 2°52.597 18.9 13.2 13 12.4
2004-05-14 06:41:25 51°18.669 2°52.605 18.9 13.1 13 12.4
2004-05-14 06:41:28 51°18.68 2°52.608 18.8 13.1 13 12.5
2004-05-14 06:41:35 51°18.705 2°52.617 18.6 13.2 12 12.5
2004-05-14 06:41:40 51°18.723 2°52.623 18.1 13.2 12 12.6
2004-05-14 06:41:44 51°18.737 2°52.629 18.2 13.2 13 12.6
2004-05-14 06:41:48 51°18.752 2°52.634 18.7 13.2 13 12.7
2004-05-14 06:41:54 51°18.773 2°52.642 18.8 13.2 13 12.7
2004-05-14 06:41:59 51°18.791 2°52.648 18.8 13.2 13 12.8
2004-05-14 06:42:04 51°18.809 2°52.654 18.6 13.2 12 12.7
2004-05-14 06:42:10 51°18.83 2°52.662 18.2 13.2 13 12.8
2004-05-14 06:42:15 51°18.848 2°52.669 18.6 13.2 13 12.9
2004-05-14 06:42:19 51°18.862 2°52.674 18.8 13.2 14 12.9
2004-05-14 06:42:24 51°18.88 2°52.681 19.1 13.2 13 12.9
2004-05-14 06:42:30 51°18.901 2°52.689 19 13.1 14 12.9
2004-05-14 06:42:34 51°18.915 2°52.695 19.4 13.1 13 13.1
2004-05-14 06:42:40 51°18.937 2°52.703 19.4 13.2 13 13.1
2004-05-14 06:42:45 51°18.954 2°52.709 18.8 13.2 13 13.1
2004-05-14 06:42:48 51°18.965 2°52.713 18.5 13.2 13 13.3
2004-05-14 06:42:54 51°18.987 2°52.721 18.5 13.2 12 13.3
2004-05-14 06:43:00 51°19.008 2°52.728 18.3 13.3 12 13.3
2004-05-14 06:43:04 51°19.023 2°52.733 18.1 13.2 12 13.5
2004-05-14 06:43:09 51°19.041 2°52.739 18.1 13.2 13 13.5
2004-05-14 06:43:14 51°19.058 2°52.746 18.8 13.3 13 13.6
2004-05-14 06:43:20 51°19.08 2°52.754 18.7 13.3 13 13.7
2004-05-14 06:43:25 51°19.098 2°52.76 18.4 13.2 13 13.6
2004-05-14 06:43:29 51°19.112 2°52.765 18.2 13.3 11 13.7
2004-05-14 06:43:34 51°19.13 2°52.771 17.8 13.3 12 13.8
2004-05-14 06:43:40 51°19.152 2°52.779 18.1 13.2 13 13.9
2004-05-14 06:43:44 51°19.166 2°52.784 18.7 13.3 13 14
2004-05-14 06:43:50 51°19.188 2°52.792 18.7 13.3 12 14.1
2004-05-14 06:43:53 51°19.199 2°52.796 18.4 13.3 12 14.1
2004-05-14 06:44:00 51°19.224 2°52.804 18.2 13.3 13 14.2
2004-05-14 06:44:05 51°19.242 2°52.811 18.4 13.2 12 14.2
2004-05-14 06:44:09 51°19.256 2°52.816 18.5 13.2 13 14.3
2004-05-14 06:44:14 51°19.274 2°52.822 18.5 13.2 12 14.4
2004-05-14 06:44:20 51°19.296 2°52.83 18.2 13.3 12 14.5
2004-05-14 06:44:25 51°19.314 2°52.836 18.2 13.3 13 14.6
2004-05-14 06:44:29 51°19.328 2°52.841 18.5 13.2 12 14.6
2004-05-14 06:44:34 51°19.346 2°52.848 18.4 13.3 13 14.8
2004-05-14 06:44:38 51°19.36 2°52.853 18.2 13.2 13 14.9
2004-05-14 06:44:45 51°19.385 2°52.862 18.1 13.3 13 14.8
2004-05-14 06:44:48 51°19.396 2°52.865 18.3 13.3 12 14.9
2004-05-14 06:44:54 51°19.418 2°52.873 18.3 13.3 13 14.9
2004-05-14 06:44:59 51°19.436 2°52.88 18.6 13.3 13 15.1
2004-05-14 06:45:04 51°19.454 2°52.886 18.7 13.3 13 15
2004-05-14 06:45:10 51°19.476 2°52.893 18.7 13.3 12 15.1
2004-05-14 06:45:14 51°19.49 2°52.899 18.4 13.3 12 15.3
2004-05-14 06:45:19 51°19.508 2°52.905 18.1 13.3 12 15.2
2004-05-14 06:45:25 51°19.53 2°52.912 18 13.2 13 15.4
2004-05-14 06:45:30 51°19.548 2°52.918 18.2 13.3 12 15.4
2004-05-14 06:45:35 51°19.566 2°52.925 18.3 13.3 13 15.5
2004-05-14 06:45:40 51°19.584 2°52.931 18.5 13.3 12 15.5
2004-05-14 06:45:44 51°19.598 2°52.937 18.7 13.3 13 15.5
2004-05-14 06:45:49 51°19.616 2°52.943 18.8 13.3 13 15.6
2004-05-14 06:45:54 51°19.634 2°52.95 18.8 13.4 14 15.5
2004-05-14 06:45:59 51°19.652 2°52.957 19.4 13.3 14 15.8
2004-05-14 06:46:05 51°19.674 2°52.967 20.7 13.4 16 16.1
2004-05-14 06:46:09 51°19.688 2°52.974 21.6 13.3 16 15.8
2004-05-14 06:46:14 51°19.705 2°52.983 22.6 13.4 18 15.9
2004-05-14 06:46:20 51°19.726 2°52.993 23.3 13.3 17 15.9
2004-05-14 06:46:24 51°19.74 2°53.001 23.5 13.3 18 16
2004-05-14 06:46:29 51°19.758 2°53.01 23.8 13.3 19 16
2004-05-14 06:46:33 51°19.772 2°53.018 24.4 13.4 18 16.2
2004-05-14 06:46:40 51°19.797 2°53.031 24.3 13.4 19 16.2
2004-05-14 06:46:45 51°19.814 2°53.039 24.2 13.4 18 16.2
2004-05-14 06:46:48 51°19.825 2°53.045 23.9 13.4 18 16.3
2004-05-14 06:46:54 51°19.846 2°53.056 23.7 13.4 18 16.6
2004-05-14 06:47:00 51°19.867 2°53.067 23.6 13.4 18 16.4
2004-05-14 06:47:04 51°19.882 2°53.074 23.4 13.3 18 16.6
2004-05-14 06:47:09 51°19.899 2°53.083 23.4 13.3 18 16.6
2004-05-14 06:47:14 51°19.917 2°53.092 24 13.4 18 16.5
2004-05-14 06:47:20 51°19.938 2°53.103 24.2 13.4 18 16.7
2004-05-14 06:47:25 51°19.955 2°53.113 24.3 13.4 18 16.6
2004-05-14 06:47:29 51°19.969 2°53.12 24.3 13.4 18 16.7
2004-05-14 06:47:34 51°19.987 2°53.129 24 13.3 18 16.8
2004-05-14 06:47:40 51°20.008 2°53.14 23.4 13.3 17 16.8
2004-05-14 06:47:44 51°20.022 2°53.147 23.4 13.4 18 16.7
2004-05-14 06:47:50 51°20.044 2°53.157 23.4 13.4 17 16.8
2004-05-14 06:47:54 51°20.058 2°53.165 23.3 13.3 18 16.9
2004-05-14 06:48:00 51°20.079 2°53.175 23.3 13.4 17 16.8
2004-05-14 06:48:05 51°20.097 2°53.184 23.3 13.4 18 16.9
2004-05-14 06:48:10 51°20.114 2°53.193 23.4 13.4 18 16.9
2004-05-14 06:48:14 51°20.128 2°53.201 23.6 13.4 18 16.9
2004-05-14 06:48:20 51°20.15 2°53.212 23.9 13.4 18 17
2004-05-14 06:48:25 51°20.167 2°53.222 23.9 13.5 18 16.9
2004-05-14 06:48:30 51°20.185 2°53.231 23.8 13.5 18 17.2
2004-05-14 06:48:34 51°20.199 2°53.238 23.7 13.4 18 17
2004-05-14 06:48:40 51°20.221 2°53.249 23.6 13.4 18 17.2
2004-05-14 06:48:44 51°20.235 2°53.256 23.6 13.5 17 17.1
2004-05-14 06:48:50 51°20.256 2°53.267 23.2 13.5 17 17.2
2004-05-14 06:48:54 51°20.271 2°53.274 22.8 13.5 17 17.1
2004-05-14 06:49:00 51°20.292 2°53.285 22.9 13.5 18 17.1
2004-05-14 06:49:05 51°20.309 2°53.294 23.4 13.4 18 17.2
2004-05-14 06:49:10 51°20.327 2°53.304 23.8 13.4 18 17.1
2004-05-14 06:49:14 51°20.341 2°53.311 23.9 13.5 18 17.1
2004-05-14 06:49:18 51°20.355 2°53.318 23.5 13.5 18 17.2
2004-05-14 06:49:25 51°20.38 2°53.331 23.2 13.4 18 17.2
2004-05-14 06:49:30 51°20.398 2°53.34 23.3 13.4 18 17.1
2004-05-14 06:49:34 51°20.412 2°53.347 23.3 13.5 18 17.1
2004-05-14 06:49:40 51°20.434 2°53.358 23.1 13.5 18 17.1
2004-05-14 06:49:44 51°20.448 2°53.365 23.1 13.5 18 17.4
2004-05-14 06:49:50 51°20.469 2°53.376 23.3 13.4 18 17.3
2004-05-14 06:49:54 51°20.483 2°53.384 23.7 13.4 18 17.1
2004-05-14 06:49:58 51°20.497 2°53.391 23.8 13.4 18 17.2
2004-05-14 06:50:05 51°20.522 2°53.404 23.7 13.3 18 17.3
2004-05-14 06:50:10 51°20.54 2°53.414 23.5 13.4 18 17.3
2004-05-14 06:50:15 51°20.557 2°53.423 23.5 13.5 18 17.3
2004-05-14 06:50:19 51°20.571 2°53.43 23.5 13.5 18 17.3
2004-05-14 06:50:24 51°20.589 2°53.439 23.3 13.5 18 17.3
2004-05-14 06:50:28 51°20.604 2°53.447 23.1 13.5 18 17.3
2004-05-14 06:50:34 51°20.625 2°53.457 23.1 13.6 18 17.3
2004-05-14 06:50:39 51°20.643 2°53.467 23.2 13.5 18 17.4
2004-05-14 06:50:45 51°20.664 2°53.478 23.3 13.6 18 17.4
2004-05-14 06:50:49 51°20.678 2°53.485 23.4 13.5 18 17.3
2004-05-14 06:50:54 51°20.696 2°53.495 23.4 13.5 18 17.5
2004-05-14 06:51:00 51°20.718 2°53.506 23.3 13.5 18 17.4
2004-05-14 06:51:05 51°20.735 2°53.516 23.2 13.6 19 17.5
2004-05-14 06:51:08 51°20.746 2°53.522 23.6 13.5 19 17.3
2004-05-14 06:51:13 51°20.763 2°53.532 23.7 13.4 19 17.4
2004-05-14 06:51:20 51°20.788 2°53.545 23.6 13.5 19 17.5
2004-05-14 06:51:24 51°20.802 2°53.553 23.2 13.5 18 17.4
2004-05-14 06:51:30 51°20.824 2°53.565 23 13.5 19 17.4
2004-05-14 06:51:34 51°20.838 2°53.572 23.3 13.5 19 17.5
2004-05-14 06:51:40 51°20.859 2°53.584 23.4 13.5 19 17.1
2004-05-14 06:51:44 51°20.873 2°53.592 23.7 13.3 19 17.6
2004-05-14 06:51:50 51°20.893 2°53.603 23.5 13.3 19 17.5
2004-05-14 06:51:54 51°20.907 2°53.611 23.3 13.3 19 17.4
2004-05-14 06:52:00 51°20.929 2°53.622 23.2 13.4 19 17.6
2004-05-14 06:52:05 51°20.946 2°53.632 23 13.4 19 17.6
2004-05-14 06:52:10 51°20.964 2°53.641 23.2 13.5 19 17.5
2004-05-14 06:52:14 51°20.978 2°53.649 23.2 13.4 19 17.5
2004-05-14 06:52:20 51°20.999 2°53.66 23.2 13.6 18 17.8
2004-05-14 06:52:24 51°21.014 2°53.668 23.2 13.4 19 17.6
2004-05-14 06:52:30 51°21.035 2°53.679 22.9 13.4 18 17.6
2004-05-14 06:52:34 51°21.049 2°53.687 22.7 13.6 18 17.6
2004-05-14 06:52:40 51°21.07 2°53.698 23.1 13.5 18 17.6
2004-05-14 06:52:44 51°21.085 2°53.706 23.3 13.6 20 17.6
2004-05-14 06:52:49 51°21.102 2°53.716 23.9 13.6 18 17.6
2004-05-14 06:52:54 51°21.12 2°53.726 23.8 13.6 19 17.6
2004-05-14 06:53:00 51°21.142 2°53.737 23.5 13.6 18 17.6
2004-05-14 06:53:05 51°21.16 2°53.747 23.2 13.7 19 17.7
2004-05-14 06:53:10 51°21.178 2°53.756 22.9 13.6 18 17.7
2004-05-14 06:53:15 51°21.195 2°53.766 23 13.6 19 17.5
2004-05-14 06:53:20 51°21.213 2°53.775 23.2 13.7 18 17.8
2004-05-14 06:53:25 51°21.231 2°53.785 23.2 13.6 19 17.7
2004-05-14 06:53:29 51°21.245 2°53.792 23.2 13.6 18 17.6
2004-05-14 06:53:34 51°21.263 2°53.802 23.2 13.6 18 17.6
2004-05-14 06:53:40 51°21.285 2°53.813 23 13.6 18 17.6
2004-05-14 06:53:45 51°21.303 2°53.823 23.2 13.7 18 17.6
2004-05-14 06:53:50 51°21.321 2°53.832 23.2 13.6 18 17.6
2004-05-14 06:53:54 51°21.335 2°53.84 23 13.5 18 17.5
2004-05-14 06:53:59 51°21.353 2°53.849 23 13.6 18 17.7
2004-05-14 06:54:04 51°21.37 2°53.859 23 13.6 19 17.6
2004-05-14 06:54:08 51°21.385 2°53.866 23.2 13.6 18 17.7
2004-05-14 06:54:15 51°21.41 2°53.88 23.2 13.6 18 17.7
2004-05-14 06:54:20 51°21.428 2°53.889 23.1 13.6 18 17.6
2004-05-14 06:54:24 51°21.442 2°53.897 23.3 13.6 19 20
2004-05-14 06:54:30 51°21.463 2°53.909 23.3 13.6 19 17.8
2004-05-14 06:54:34 51°21.478 2°53.916 23.3 13.5 18 17.7
2004-05-14 06:54:39 51°21.495 2°53.926 23.2 13.6 19 17.6
2004-05-14 06:54:44 51°21.513 2°53.935 23.2 13.6 19 17.6
2004-05-14 06:54:50 51°21.535 2°53.947 23.2 13.6 18 17.8
2004-05-14 06:54:55 51°21.552 2°53.956 23.2 13.6 18 17.6
2004-05-14 06:55:00 51°21.57 2°53.965 23.2 13.5 18 17.7
2004-05-14 06:55:04 51°21.584 2°53.973 23 13.6 19 17.7
2004-05-14 06:55:09 51°21.602 2°53.983 23.5 13.5 19 17.8
2004-05-14 06:55:12 51°21.613 2°53.989 23.6 13.5 19 17.8
2004-05-14 06:55:20 51°21.641 2°54.005 23.9 13.5 19 17.9
2004-05-14 06:55:25 51°21.659 2°54.015 23.8 13.6 19 17.9
2004-05-14 06:55:30 51°21.677 2°54.024 23.6 13.6 19 17.8
2004-05-14 06:55:35 51°21.695 2°54.033 23.1 13.6 18 17.8
2004-05-14 06:55:39 51°21.709 2°54.041 23.2 13.5 19 17.8
2004-05-14 06:55:44 51°21.727 2°54.05 23.2 13.5 18 17.9
2004-05-14 06:55:54 51°21.762 2°54.069 23.2 13.6 18 18.1
2004-05-14 06:56:00 51°21.784 2°54.081 22.9 13.6 18 18
2004-05-14 06:56:05 51°21.802 2°54.09 23.3 13.5 18 18.2
2004-05-14 06:56:10 51°21.819 2°54.099 23.2 13.6 18 18.3
2004-05-14 06:56:14 51°21.834 2°54.107 23.1 13.6 18 18.3
2004-05-14 06:56:19 51°21.852 2°54.117 23.4 13.5 19 18.4
2004-05-14 06:56:24 51°21.869 2°54.126 23.4 13.6 19 18.6
2004-05-14 06:56:30 51°21.891 2°54.138 23.4 13.5 18 18.6
2004-05-14 06:56:33 51°21.901 2°54.144 23 13.5 19 18.6
2004-05-14 06:56:40 51°21.926 2°54.157 23.1 13.5 18 18.7
2004-05-14 06:56:44 51°21.941 2°54.165 23.2 13.5 19 19
2004-05-14 06:56:49 51°21.958 2°54.174 23.3 13.6 18 19.2
2004-05-14 06:56:54 51°21.976 2°54.184 23.5 13.6 19 19.7
2004-05-14 06:57:00 51°21.998 2°54.195 23.7 13.6 19 19.8
2004-05-14 06:57:05 51°22.016 2°54.205 23.6 13.6 18 19.8
2004-05-14 06:57:08 51°22.026 2°54.21 23.2 13.6 18 19.7
2004-05-14 06:57:14 51°22.048 2°54.222 23.1 13.6 18 19.8
2004-05-14 06:57:20 51°22.069 2°54.234 23.2 13.6 19 19.6
2004-05-14 06:57:24 51°22.084 2°54.241 23.3 13.6 18 19.6
2004-05-14 06:57:29 51°22.102 2°54.251 23.2 13.6 18 19.6
2004-05-14 06:57:34 51°22.12 2°54.26 23.2 13.6 19 19.3
2004-05-14 06:57:40 51°22.141 2°54.272 23.2 13.6 18 19.2
2004-05-14 06:57:44 51°22.155 2°54.28 23.5 13.7 19 19.1
2004-05-14 06:57:50 51°22.177 2°54.291 23.6 13.6 19 19.4
2004-05-14 06:57:55 51°22.195 2°54.301 23.2 13.5 19 19.3
2004-05-14 06:57:59 51°22.209 2°54.309 23.3 13.6 19 19.3
2004-05-14 06:58:05 51°22.23 2°54.32 23 13.6 19 19.3
2004-05-14 06:58:10 51°22.248 2°54.33 22.9 13.6 18 19.3
2004-05-14 06:58:14 51°22.262 2°54.338 23.2 13.5 19 19.4
2004-05-14 06:58:20 51°22.284 2°54.35 23.6 13.5 19 19.4
2004-05-14 06:58:24 51°22.298 2°54.357 23.8 13.6 19 19.5
2004-05-14 06:58:29 51°22.316 2°54.367 23.3 13.6 18 19.6
2004-05-14 06:58:34 51°22.334 2°54.377 23.2 13.6 19 19.6
2004-05-14 06:58:39 51°22.352 2°54.386 23.2 13.6 19 19.8
2004-05-14 06:58:44 51°22.37 2°54.396 23.2 13.6 19 20
2004-05-14 06:58:50 51°22.391 2°54.408 23.2 13.6 19 20
2004-05-14 06:58:54 51°22.405 2°54.416 23.3 13.5 19 20.1
2004-05-14 06:59:00 51°22.427 2°54.427 23.3 13.6 19 20.3
2004-05-14 06:59:04 51°22.441 2°54.435 23.4 13.5 18 20.5
2004-05-14 06:59:08 51°22.455 2°54.443 23.3 13.5 18 20.6
2004-05-14 06:59:14 51°22.476 2°54.454 23.3 13.4 18 20.7
2004-05-14 06:59:20 51°22.497 2°54.465 23.2 13.5 18 20.7
2004-05-14 06:59:24 51°22.511 2°54.473 23.2 13.4 19 20.9
2004-05-14 06:59:30 51°22.532 2°54.485 23.6 13.4 19 21
2004-05-14 06:59:35 51°22.55 2°54.494 23.6 13.3 19 20.9
2004-05-14 06:59:40 51°22.568 2°54.504 23.6 13.3 18 21.1
2004-05-14 06:59:44 51°22.582 2°54.511 22.6 13.4 18 21.2
2004-05-14 06:59:48 51°22.596 2°54.518 22.5 13.4 18 21.4
2004-05-14 06:59:54 51°22.617 2°54.529 22.8 13.4 19 21.6
2004-05-14 07:00:00 51°22.638 2°54.541 23.5 13.4 19 21.6
2004-05-14 07:00:05 51°22.656 2°54.551 23.5 13.5 19 21.9
2004-05-14 07:00:09 51°22.67 2°54.558 23.4 13.5 18 22
2004-05-14 07:00:15 51°22.691 2°54.569 23.2 13.5 19 22
2004-05-14 07:00:20 51°22.709 2°54.578 23.2 13.5 18 22.1
2004-05-14 07:00:24 51°22.723 2°54.586 22.8 13.4 19 22.2
2004-05-14 07:00:28 51°22.737 2°54.594 23.2 13.4 19 22.2
2004-05-14 07:00:34 51°22.758 2°54.605 23.5 13.4 19 22.2
2004-05-14 07:00:40 51°22.78 2°54.617 23.6 13.4 19 22.3
2004-05-14 07:00:45 51°22.797 2°54.626 23.3 13.5 18 22.4
2004-05-14 07:00:50 51°22.815 2°54.635 23.1 13.4 18 22.3
2004-05-14 07:00:55 51°22.833 2°54.644 23.1 13.4 18 22.1
2004-05-14 07:01:00 51°22.85 2°54.654 23.3 13.3 19 22.1
2004-05-14 07:01:05 51°22.868 2°54.663 23.3 13.2 19 21.8
2004-05-14 07:01:09 51°22.881 2°54.67 23.3 13.2 19 21.3
2004-05-14 07:01:15 51°22.902 2°54.682 23.2 13.3 18 21.3
2004-05-14 07:01:20 51°22.92 2°54.691 23.4 13.3 19 21.3
2004-05-14 07:01:24 51°22.934 2°54.699 23.6 13.3 19 21.2
2004-05-14 07:01:29 51°22.952 2°54.708 23.7 13.3 19 21.1
2004-05-14 07:01:34 51°22.969 2°54.718 23.8 13.2 20 21
2004-05-14 07:01:40 51°22.99 2°54.73 23.9 13.3 19 21.1
2004-05-14 07:01:45 51°23.007 2°54.74 23.9 13.4 19 20.9
2004-05-14 07:01:48 51°23.018 2°54.745 23.8 13.3 19 20.6
2004-05-14 07:01:53 51°23.035 2°54.756 24.6 13.3 22 20.8
2004-05-14 07:02:00 51°23.059 2°54.772 26.1 13.4 22 20.8
2004-05-14 07:02:04 51°23.072 2°54.782 27.4 13.4 24 20.8
2004-05-14 07:02:08 51°23.086 2°54.792 28.4 13.5 26 21
2004-05-14 07:02:14 51°23.106 2°54.807 29.4 13.4 25 21.1
2004-05-14 07:02:20 51°23.126 2°54.822 29.9 13.4 26 20.7
2004-05-14 07:02:25 51°23.143 2°54.835 30.2 13.4 25 20.6
2004-05-14 07:02:30 51°23.16 2°54.848 30 13.4 25 20.3
2004-05-14 07:02:34 51°23.173 2°54.858 29.9 13.4 25 20.3
2004-05-14 07:02:40 51°23.193 2°54.873 29.9 13.3 25 18
2004-05-14 07:02:44 51°23.207 2°54.884 29.7 13.3 25 20.4
2004-05-14 07:02:49 51°23.223 2°54.896 29.7 13.4 25 20.1
2004-05-14 07:02:54 51°23.24 2°54.909 29.3 13.4 25 19.5
2004-05-14 07:02:59 51°23.257 2°54.921 29.4 13.5 25 19.7
2004-05-14 07:03:04 51°23.274 2°54.934 29.7 13.4 26 20
2004-05-14 07:03:10 51°23.294 2°54.95 29.7 13.4 25 20.3
2004-05-14 07:03:15 51°23.311 2°54.962 30.1 13.5 25 18.7
2004-05-14 07:03:20 51°23.328 2°54.975 29.8 13.6 26 20.5
2004-05-14 07:03:24 51°23.342 2°54.985 29.5 13.5 25 19.5
2004-05-14 07:03:29 51°23.359 2°54.998 29.5 13.6 26 18.4
2004-05-14 07:03:34 51°23.376 2°55.011 29.4 13.6 25 20.3
2004-05-14 07:03:40 51°23.396 2°55.026 29.7 13.5 26 20
2004-05-14 07:03:45 51°23.413 2°55.039 29.7 13.5 25 19.3
2004-05-14 07:03:49 51°23.427 2°55.049 29.6 13.6 25 19.3
2004-05-14 07:03:54 51°23.444 2°55.062 29.7 13.5 26 17.7
2004-05-14 07:04:00 51°23.464 2°55.077 29.7 13.5 26 20.6
2004-05-14 07:04:04 51°23.477 2°55.088 30 13.6 25 20.7
2004-05-14 07:04:10 51°23.497 2°55.103 29.7 13.5 26 20.1
2004-05-14 07:04:14 51°23.511 2°55.113 29.4 13.4 25 17.3
2004-05-14 07:04:20 51°23.531 2°55.128 29.5 13.5 25 19.9
2004-05-14 07:04:24 51°23.545 2°55.139 29.6 13.4 25 21
2004-05-14 07:04:28 51°23.558 2°55.149 29.6 13.5 25 20.5
2004-05-14 07:04:34 51°23.579 2°55.164 29.7 13.5 25 18
2004-05-14 07:04:40 51°23.599 2°55.179 29.5 13.5 25 20.6
2004-05-14 07:04:44 51°23.613 2°55.189 29 13.5 25 18.4
2004-05-14 07:04:50 51°23.633 2°55.205 29 13.6 25 20.9
2004-05-14 07:04:54 51°23.647 2°55.215 29.7 13.7 25 21
2004-05-14 07:05:00 51°23.667 2°55.23 29.9 13.5 25 19.7
2004-05-14 07:05:04 51°23.681 2°55.241 29.8 13.5 25 19.9
2004-05-14 07:05:10 51°23.702 2°55.256 29.6 13.6 25 17.6
2004-05-14 07:05:14 51°23.715 2°55.266 29.3 13.6 25 21.1
2004-05-14 07:05:20 51°23.735 2°55.282 29.3 13.6 25 20.1
2004-05-14 07:05:25 51°23.753 2°55.294 29.8 13.5 24 21
2004-05-14 07:05:29 51°23.766 2°55.304 29.3 13.6 26 21.1
2004-05-14 07:05:35 51°23.787 2°55.319 29.4 13.5 24 20.3
2004-05-14 07:05:39 51°23.8 2°55.33 29 13.6 26 20.4
2004-05-14 07:05:45 51°23.821 2°55.344 29.2 13.6 24 20.7
2004-05-14 07:05:49 51°23.835 2°55.355 29.4 13.6 25 20.7
2004-05-14 07:05:55 51°23.855 2°55.37 29.3 13.6 24 21.6
2004-05-14 07:06:00 51°23.872 2°55.382 29 13.6 24 21.5
2004-05-14 07:06:04 51°23.886 2°55.393 28.9 13.7 25 21.6
2004-05-14 07:06:08 51°23.9 2°55.403 29.5 13.6 25 21.8
2004-05-14 07:06:14 51°23.92 2°55.419 30.1 13.6 26 21.8
2004-05-14 07:06:19 51°23.937 2°55.432 30.1 13.6 25 21.2
2004-05-14 07:06:24 51°23.954 2°55.445 29.9 13.6 26 21.8
2004-05-14 07:06:29 51°23.971 2°55.458 29.9 13.6 25 21.8
2004-05-14 07:06:34 51°23.988 2°55.471 29.8 13.6 26 22
2004-05-14 07:06:40 51°24.009 2°55.487 30 13.6 25 22.1
2004-05-14 07:06:45 51°24.026 2°55.499 29.8 13.5 25 22.4
2004-05-14 07:06:49 51°24.039 2°55.51 29.7 13.5 25 22.4
2004-05-14 07:06:55 51°24.06 2°55.525 29.6 13.6 25 22.6
2004-05-14 07:07:00 51°24.077 2°55.538 29.5 13.6 25 22.7
2004-05-14 07:07:04 51°24.091 2°55.548 29.1 13.6 24 22.6
2004-05-14 07:07:10 51°24.112 2°55.563 29 13.6 25 22.6
2004-05-14 07:07:14 51°24.126 2°55.573 28.8 13.7 25 22.8
2004-05-14 07:07:20 51°24.146 2°55.588 29.2 13.7 25 22.9
2004-05-14 07:07:25 51°24.163 2°55.601 29.5 13.7 24 23.2
2004-05-14 07:07:29 51°24.177 2°55.611 29.3 13.7 25 23
2004-05-14 07:07:34 51°24.195 2°55.624 29.5 13.8 25 23.1
2004-05-14 07:07:40 51°24.215 2°55.639 29.2 13.7 25 23.4
2004-05-14 07:07:45 51°24.233 2°55.652 29 13.8 25 23.7
2004-05-14 07:07:48 51°24.243 2°55.659 29 13.7 25 24
2004-05-14 07:07:54 51°24.264 2°55.675 29 13.7 25 24
2004-05-14 07:08:00 51°24.284 2°55.69 29 13.7 24 24.2
2004-05-14 07:08:04 51°24.298 2°55.701 29.5 13.7 26 24.2
2004-05-14 07:08:10 51°24.319 2°55.716 29.8 13.7 25 24.3
2004-05-14 07:08:14 51°24.333 2°55.726 29.7 13.8 25 24.6
2004-05-14 07:08:20 51°24.353 2°55.742 29 13.8 25 24.7
2004-05-14 07:08:24 51°24.367 2°55.752 29.2 13.7 24 24.9
2004-05-14 07:08:28 51°24.381 2°55.761 28.8 13.7 24 24.8
2004-05-14 07:08:34 51°24.402 2°55.777 28.8 13.8 24 24.9
2004-05-14 07:08:40 51°24.423 2°55.792 28.9 13.8 25 25
2004-05-14 07:08:44 51°24.436 2°55.803 29.6 13.8 25 25.1
2004-05-14 07:08:50 51°24.457 2°55.818 29.7 13.8 25 25
2004-05-14 07:08:55 51°24.475 2°55.831 29.4 13.9 25 24.9
2004-05-14 07:09:00 51°24.492 2°55.844 29.2 13.8 25 24.8
2004-05-14 07:09:04 51°24.506 2°55.854 29 13.9 25 24.5
2004-05-14 07:09:10 51°24.527 2°55.869 28.8 13.9 24 24.4
2004-05-14 07:09:14 51°24.541 2°55.88 28.8 13.9 25 24.3
2004-05-14 07:09:20 51°24.562 2°55.895 29.1 13.9 25 24.2
2004-05-14 07:09:25 51°24.579 2°55.908 29.5 13.9 25 24.1
2004-05-14 07:09:30 51°24.597 2°55.921 29.4 13.9 24 23.8
2004-05-14 07:09:35 51°24.614 2°55.934 28.9 13.9 25 23.6
2004-05-14 07:09:39 51°24.628 2°55.944 28.9 13.9 25 23.6
2004-05-14 07:09:45 51°24.649 2°55.96 29.1 13.9 25 23.9
2004-05-14 07:09:49 51°24.663 2°55.971 29.4 13.9 26 23.9
2004-05-14 07:09:55 51°24.684 2°55.987 29.5 14 26 24.2
2004-05-14 07:10:00 51°24.702 2°56.001 29.4 14 26 24.2
2004-05-14 07:10:04 51°24.715 2°56.011 29.9 13.9 26 24.3
2004-05-14 07:10:08 51°24.729 2°56.022 29.9 14 26 24.5
2004-05-14 07:10:14 51°24.75 2°56.039 29.9 14 26 24.4
2004-05-14 07:10:20 51°24.771 2°56.056 29.9 14 27 24.7
2004-05-14 07:10:24 51°24.785 2°56.067 29.7 13.9 27 25
2004-05-14 07:10:28 51°24.799 2°56.078 29.6 13.9 26 25.2
2004-05-14 07:10:34 51°24.82 2°56.094 29.4 13.9 26 25.9
2004-05-14 07:10:40 51°24.84 2°56.11 28.7 13.8 25 25.8
2004-05-14 07:10:44 51°24.854 2°56.12 28.7 13.9 25 25.9
2004-05-14 07:10:49 51°24.871 2°56.133 28.4 13.9 25 25.9
2004-05-14 07:10:54 51°24.889 2°56.146 28.7 13.9 25 25.8
2004-05-14 07:11:00 51°24.91 2°56.162 28.9 14 24 26
2004-05-14 07:11:04 51°24.924 2°56.172 28.3 13.9 26 25.8
2004-05-14 07:11:08 51°24.938 2°56.183 29 13.9 26 25.9
2004-05-14 07:11:14 51°24.959 2°56.199 29 13.8 27 25.8
2004-05-14 07:11:20 51°24.979 2°56.216 29.5 13.8 26 25.7
2004-05-14 07:11:25 51°24.996 2°56.23 29.8 13.7 27 25.6
2004-05-14 07:11:29 51°25.01 2°56.241 30.2 13.7 27 25.8
2004-05-14 07:11:34 51°25.027 2°56.254 29.9 13.7 27 25.7
2004-05-14 07:11:40 51°25.047 2°56.27 29.6 13.7 25 25.6
2004-05-14 07:11:45 51°25.064 2°56.283 29 13.6 26 25.5
2004-05-14 07:11:48 51°25.075 2°56.291 29.1 13.7 25 25.6
2004-05-14 07:11:54 51°25.095 2°56.306 28.7 13.7 24 25.6
2004-05-14 07:12:00 51°25.116 2°56.322 28.5 13.7 25 25.5
2004-05-14 07:12:04 51°25.129 2°56.332 29 13.6 25 25.6
2004-05-14 07:12:09 51°25.146 2°56.345 29.1 13.7 26 25.5
2004-05-14 07:12:14 51°25.164 2°56.358 29 13.6 25 25.5
2004-05-14 07:12:20 51°25.184 2°56.374 29 13.6 25 25.3
2004-05-14 07:12:24 51°25.197 2°56.384 29.2 13.6 26 25.4
2004-05-14 07:12:29 51°25.215 2°56.397 29.3 13.6 25 25.3
2004-05-14 07:12:34 51°25.231 2°56.41 29.2 13.5 26 24.9
2004-05-14 07:12:40 51°25.252 2°56.425 29.2 13.5 26 25
2004-05-14 07:12:45 51°25.268 2°56.438 29.5 13.4 26 24.8
2004-05-14 07:12:50 51°25.285 2°56.451 29.7 13.5 26 24.7
2004-05-14 07:12:55 51°25.302 2°56.464 29.7 13.4 26 24.6
2004-05-14 07:13:00 51°25.318 2°56.477 29.9 13.4 26 24.3
2004-05-14 07:13:04 51°25.332 2°56.488 29.9 13.4 26 24.2
2004-05-14 07:13:09 51°25.349 2°56.5 29.6 13.4 25 24
2004-05-14 07:13:15 51°25.369 2°56.516 29.3 13.4 25 23.8
2004-05-14 07:13:20 51°25.386 2°56.528 29.2 13.5 25 23.6
2004-05-14 07:13:24 51°25.399 2°56.538 29.2 13.3 25 23.3
2004-05-14 07:13:30 51°25.419 2°56.553 28.8 13.3 25 23.1
2004-05-14 07:13:34 51°25.433 2°56.563 29.2 13.3 25 22.9
2004-05-14 07:13:39 51°25.449 2°56.576 29.4 13.3 27 22.5
2004-05-14 07:13:45 51°25.469 2°56.592 29.9 13.3 26 22.5
2004-05-14 07:13:48 51°25.479 2°56.6 30 13.3 27 22.2
2004-05-14 07:13:53 51°25.496 2°56.613 29.8 13.2 26 21.9
2004-05-14 07:14:00 51°25.519 2°56.63 29.3 13.2 25 21.9
2004-05-14 07:14:04 51°25.532 2°56.641 29.1 13.3 26 21.5
2004-05-14 07:14:10 51°25.552 2°56.656 29.4 13.4 26 21.2
2004-05-14 07:14:14 51°25.566 2°56.666 29.6 13.4 26 20.9
2004-05-14 07:14:19 51°25.582 2°56.68 30.1 13.4 27 20.9
2004-05-14 07:14:24 51°25.599 2°56.693 30.2 13.3 26 20.8
2004-05-14 07:14:30 51°25.619 2°56.708 29.9 13.3 26 20.5
2004-05-14 07:14:35 51°25.635 2°56.721 29.7 13.3 25 20.2
2004-05-14 07:14:40 51°25.652 2°56.733 29.5 13.3 26 19.8
2004-05-14 07:14:44 51°25.665 2°56.744 29 13.4 26 19.6
2004-05-14 07:14:48 51°25.679 2°56.754 29 13.4 25 19.8
2004-05-14 07:14:54 51°25.699 2°56.769 28.8 13.3 25 19.5
2004-05-14 07:15:00 51°25.719 2°56.784 28.9 13.2 26 18.3
2004-05-14 07:15:04 51°25.732 2°56.794 29.2 13.2 26 18.5
2004-05-14 07:15:10 51°25.752 2°56.81 29.6 13.2 26 18.9
2004-05-14 07:15:13 51°25.761 2°56.818 29.8 13.3 26 18.8
2004-05-14 07:15:20 51°25.785 2°56.836 29.9 13.3 26 18.6
2004-05-14 07:15:25 51°25.801 2°56.849 29.7 13.2 26 18.3
2004-05-14 07:15:29 51°25.814 2°56.859 29.3 13.2 26 18
2004-05-14 07:15:35 51°25.834 2°56.875 29.2 13.3 26 17.4
2004-05-14 07:15:40 51°25.851 2°56.888 29.4 13.4 26 17.4
2004-05-14 07:15:44 51°25.864 2°56.898 29.2 13.2 26 18.1
2004-05-14 07:15:50 51°25.884 2°56.913 29.2 13.2 25 18.2
2004-05-14 07:15:52 51°25.891 2°56.918 29.1 13.4 26 17.7
2004-05-14 07:15:59 51°25.914 2°56.936 29 13.4 26 17.9
2004-05-14 07:16:04 51°25.931 2°56.949 29 13.3 26 18.1
2004-05-14 07:16:10 51°25.95 2°56.965 29.4 13.3 26 17.8
2004-05-14 07:16:15 51°25.967 2°56.978 29.4 13.3 26 17.8
2004-05-14 07:16:20 51°25.984 2°56.991 29.5 13.3 26 17.8
2004-05-14 07:16:24 51°25.997 2°57.002 29.4 13.3 27 17.8
2004-05-14 07:16:30 51°26.016 2°57.018 29.7 13.3 27 17.5
2004-05-14 07:16:34 51°26.029 2°57.029 30.4 13.4 29 16.1
2004-05-14 07:16:40 51°26.049 2°57.047 31.4 13.4 29 17.8
2004-05-14 07:16:45 51°26.065 2°57.063 32.6 13.4 32 17.8
2004-05-14 07:16:48 51°26.074 2°57.072 33.9 13.3 31 15.6
2004-05-14 07:16:53 51°26.09 2°57.088 35.1 13.4 34 17.6
2004-05-14 07:17:00 51°26.111 2°57.114 37.9 13.5 37 17.8
2004-05-14 07:17:04 51°26.122 2°57.129 40.6 13.5 40 16.8
2004-05-14 07:17:09 51°26.136 2°57.15 42.5 13.5 43 18
2004-05-14 07:17:14 51°26.15 2°57.17 44.6 13.5 42 17.9
2004-05-14 07:17:19 51°26.163 2°57.191 45.7 13.6 45 17.9
2004-05-14 07:17:24 51°26.177 2°57.212 46.7 13.5 44 17.9
2004-05-14 07:17:30 51°26.192 2°57.237 47.1 13.6 45 17.8
2004-05-14 07:17:35 51°26.206 2°57.258 47.5 13.5 44 18
2004-05-14 07:17:40 51°26.219 2°57.279 47.5 13.5 46 16.7
2004-05-14 07:17:44 51°26.23 2°57.296 47.1 13.4 44 16.3
2004-05-14 07:17:48 51°26.241 2°57.313 46.7 13.5 44 16.9
2004-05-14 07:17:54 51°26.257 2°57.338 46.4 13.5 44 17.5
2004-05-14 07:18:00 51°26.273 2°57.363 46.5 13.6 44 18
2004-05-14 07:18:05 51°26.287 2°57.383 46.4 13.5 43 17.9
2004-05-14 07:18:10 51°26.3 2°57.404 45.8 13.4 43 17.1
2004-05-14 07:18:13 51°26.308 2°57.417 46.7 13.5 45 18.2
2004-05-14 07:18:20 51°26.327 2°57.445 46.5 13.5 43 17
2004-05-14 07:18:25 51°26.341 2°57.466 46.3 13.5 43 17.3
2004-05-14 07:18:29 51°26.352 2°57.482 45.9 13.5 42 18.1
2004-05-14 07:18:35 51°26.368 2°57.507 45.7 13.6 44 18.1
2004-05-14 07:18:40 51°26.382 2°57.528 45.5 13.5 42 18.2
2004-05-14 07:18:44 51°26.393 2°57.545 45.8 13.5 44 17.4
2004-05-14 07:18:50 51°26.409 2°57.569 46.1 13.5 43 14.3
2004-05-14 07:18:52 51°26.415 2°57.578 46.5 13.5 45 16.8
2004-05-14 07:18:59 51°26.434 2°57.606 46.5 13.5 43 18
2004-05-14 07:19:04 51°26.447 2°57.627 45.9 13.5 44 18.1
2004-05-14 07:19:10 51°26.464 2°57.651 46.1 13.5 43 17.2
2004-05-14 07:19:15 51°26.477 2°57.673 45.9 13.5 44 17.8
2004-05-14 07:19:20 51°26.491 2°57.693 45.8 13.5 42 18.3
2004-05-14 07:19:24 51°26.502 2°57.709 45.6 13.5 43 18.7
2004-05-14 07:19:30 51°26.519 2°57.734 45.7 13.5 43 18.8
2004-05-14 07:19:34 51°26.53 2°57.75 45.6 13.6 43 18.5
2004-05-14 07:19:40 51°26.546 2°57.774 45.5 13.6 42 16.1
2004-05-14 07:19:45 51°26.56 2°57.794 45.4 13.3 43 17.3
2004-05-14 07:19:50 51°26.573 2°57.815 45.7 13.4 44 17.1
2004-05-14 07:19:54 51°26.585 2°57.831 46.3 13.5 43 16.1
2004-05-14 07:20:00 51°26.601 2°57.856 45.5 13.5 42 15.9
2004-05-14 07:20:04 51°26.612 2°57.872 46 13.4 43 15.1
2004-05-14 07:20:09 51°26.625 2°57.893 45.9 13.5 43 16.2
2004-05-14 07:20:15 51°26.642 2°57.918 45.6 13.6 43 17.6
2004-05-14 07:20:20 51°26.656 2°57.938 45.5 13.6 42 16.6
2004-05-14 07:20:25 51°26.67 2°57.958 45.1 13.6 42 18.1
2004-05-14 07:20:30 51°26.683 2°57.979 45.2 13.6 43 18.7
2004-05-14 07:20:34 51°26.695 2°57.995 45.6 13.5 43 19
2004-05-14 07:20:40 51°26.711 2°58.019 45.8 13.5 43 18.9
2004-05-14 07:20:44 51°26.722 2°58.036 45.9 13.6 43 16.2
2004-05-14 07:20:48 51°26.733 2°58.052 45.7 13.6 42 18.3
2004-05-14 07:20:55 51°26.753 2°58.08 45 13.6 42 18.9
2004-05-14 07:21:00 51°26.767 2°58.101 44.9 13.5 43 18.7
2004-05-14 07:21:04 51°26.777 2°58.118 45.7 13.5 43 18.9
2004-05-14 07:21:08 51°26.788 2°58.134 45.7 13.6 43 18.5
2004-05-14 07:21:14 51°26.805 2°58.158 45.7 13.5 43 18
2004-05-14 07:21:20 51°26.822 2°58.182 45.5 13.6 42 16.1
2004-05-14 07:21:25 51°26.835 2°58.203 45 13.5 43 15.5
2004-05-14 07:21:30 51°26.849 2°58.223 45.7 13.6 44 16.9
2004-05-14 07:21:35 51°26.863 2°58.243 45.7 13.5 42 15.8
2004-05-14 07:21:40 51°26.877 2°58.264 45.2 13.5 43 17
2004-05-14 07:21:44 51°26.888 2°58.28 45.5 13.6 43 16.6
2004-05-14 07:21:49 51°26.902 2°58.3 45.5 13.5 42 16.4
2004-05-14 07:21:55 51°26.918 2°58.325 45 13.5 43 17.2
2004-05-14 07:21:59 51°26.93 2°58.341 45.6 13.6 41 16.9
2004-05-14 07:22:05 51°26.946 2°58.365 44.8 13.5 43 17.4
2004-05-14 07:22:10 51°26.96 2°58.385 45.2 13.4 43 17.5
2004-05-14 07:22:15 51°26.974 2°58.406 45.3 13.5 42 18.2
2004-05-14 07:22:19 51°26.985 2°58.423 45.4 13.5 43 18.7
2004-05-14 07:22:24 51°26.999 2°58.443 45.7 13.6 42 17.5
2004-05-14 07:22:30 51°27.015 2°58.467 45.1 13.5 42 16
2004-05-14 07:22:34 51°27.026 2°58.483 45.2 13.5 43 16.7
2004-05-14 07:22:40 51°27.043 2°58.507 45.7 13.5 42 17.4
2004-05-14 07:22:44 51°27.054 2°58.523 45.6 13.5 42 17.6
2004-05-14 07:22:50 51°27.071 2°58.547 45.2 13.4 42 17.1
2004-05-14 07:22:54 51°27.082 2°58.563 44.6 13.3 41 17.5
2004-05-14 07:23:00 51°27.098 2°58.587 45.5 13.6 43 18.2
2004-05-14 07:23:04 51°27.11 2°58.603 45.2 13.4 42 18.4
2004-05-14 07:23:09 51°27.123 2°58.623 45.1 13.4 43 18.8
2004-05-14 07:23:15 51°27.14 2°58.647 46 13.4 43 19.1
2004-05-14 07:23:20 51°27.153 2°58.667 45.7 13.4 41 19.3
2004-05-14 07:23:25 51°27.167 2°58.688 45.7 13.5 42 19.5
2004-05-14 07:23:29 51°27.179 2°58.703 45.1 13.5 41 19.4
2004-05-14 07:23:34 51°27.192 2°58.723 45.1 13.4 42 19.5
2004-05-14 07:23:40 51°27.209 2°58.748 45.3 13.5 42 19.7
2004-05-14 07:23:44 51°27.22 2°58.764 45.7 13.5 41 19.2
2004-05-14 07:23:50 51°27.237 2°58.787 45 13.5 41 16.6
2004-05-14 07:23:55 51°27.251 2°58.808 45.1 13.5 43 16.8
2004-05-14 07:24:00 51°27.265 2°58.827 45.2 13.4 42 16.4
2004-05-14 07:24:04 51°27.276 2°58.844 45.2 13.4 43 17.2
2004-05-14 07:24:08 51°27.287 2°58.86 45.7 13.5 43 17.8
2004-05-14 07:24:13 51°27.301 2°58.88 46.1 13.5 42 17.6
2004-05-14 07:24:20 51°27.32 2°58.909 45.4 13.5 42 17.3
2004-05-14 07:24:25 51°27.334 2°58.929 45.7 13.5 42 18.3
2004-05-14 07:24:30 51°27.348 2°58.949 45.2 13.5 41 17.3
2004-05-14 07:24:35 51°27.362 2°58.969 45 13.6 42 17.5
2004-05-14 07:24:40 51°27.376 2°58.989 45.6 13.5 42 18.3
2004-05-14 07:24:44 51°27.387 2°59.005 45.3 13.5 42 18.8
2004-05-14 07:24:49 51°27.401 2°59.025 45.1 13.5 43 19.7
2004-05-14 07:24:55 51°27.418 2°59.05 45.6 13.5 42 20.4
2004-05-14 07:24:59 51°27.429 2°59.066 45.3 13.6 42 20.6
2004-05-14 07:25:05 51°27.446 2°59.09 45.3 13.6 42 20.7
2004-05-14 07:25:10 51°27.46 2°59.11 45.4 13.5 42 20.9
2004-05-14 07:25:14 51°27.471 2°59.125 45.4 13.6 41 20.9
2004-05-14 07:25:20 51°27.488 2°59.15 45 13.6 41 20.9
2004-05-14 07:25:24 51°27.499 2°59.166 45.5 13.6 41 21.1
2004-05-14 07:25:30 51°27.516 2°59.19 45.5 13.6 42 21.2
2004-05-14 07:25:35 51°27.531 2°59.21 45 13.5 42 21.1
2004-05-14 07:25:40 51°27.544 2°59.23 45.1 13.6 42 19.5
2004-05-14 07:25:44 51°27.556 2°59.246 45.4 13.5 42 19.7
2004-05-14 07:25:48 51°27.567 2°59.262 45.6 13.5 42 20.6
2004-05-14 07:25:54 51°27.583 2°59.287 45.8 13.6 43 21
2004-05-14 07:26:00 51°27.6 2°59.311 46.2 13.6 42 21.5
2004-05-14 07:26:04 51°27.611 2°59.328 46.2 13.6 42 21.6
2004-05-14 07:26:10 51°27.628 2°59.352 45.9 13.6 42 21.6
2004-05-14 07:26:15 51°27.642 2°59.373 46 13.7 43 21
2004-05-14 07:26:20 51°27.656 2°59.393 45.8 13.7 42 19.6
2004-05-14 07:26:24 51°27.668 2°59.409 45.4 13.7 42 19.7
2004-05-14 07:26:30 51°27.685 2°59.434 45.6 13.7 42 20.1
2004-05-14 07:26:34 51°27.696 2°59.45 45.4 13.8 42 20.6
2004-05-14 07:26:40 51°27.713 2°59.475 45.2 13.7 41 20.3
2004-05-14 07:26:44 51°27.724 2°59.491 44.9 13.7 43 18.9
2004-05-14 07:26:50 51°27.741 2°59.515 45.3 13.6 42 19.4
2004-05-14 07:26:54 51°27.752 2°59.531 45.3 13.7 42 19.9
2004-05-14 07:27:00 51°27.769 2°59.555 45.6 13.6 42 20.4
2004-05-14 07:27:04 51°27.78 2°59.572 45.6 13.6 43 19.5
2004-05-14 07:27:09 51°27.794 2°59.592 46.2 13.7 42 20
2004-05-14 07:27:15 51°27.811 2°59.617 45.7 13.7 42 20.3
2004-05-14 07:27:20 51°27.825 2°59.637 45.1 13.6 41 18.8
2004-05-14 07:27:25 51°27.839 2°59.657 44.5 13.7 42 20
2004-05-14 07:27:30 51°27.854 2°59.677 44.7 13.7 42 20.4
2004-05-14 07:27:34 51°27.865 2°59.694 45.2 13.7 42 19.4
2004-05-14 07:27:40 51°27.882 2°59.718 45.1 13.7 42 20.1
2004-05-14 07:27:44 51°27.893 2°59.734 44.8 13.6 43 20.3
2004-05-14 07:27:50 51°27.91 2°59.759 45.4 13.6 42 19
2004-05-14 07:27:55 51°27.924 2°59.779 45.4 13.7 42 19.6
2004-05-14 07:28:00 51°27.938 2°59.799 45.4 13.7 42 19.8
2004-05-14 07:28:04 51°27.949 2°59.816 45.4 13.6 42 19.9
2004-05-14 07:28:10 51°27.966 2°59.841 45.1 13.7 43 20.1
2004-05-14 07:28:14 51°27.977 2°59.857 45.7 13.7 42 19.1
2004-05-14 07:28:20 51°27.994 2°59.881 45.6 13.7 42 19.8
2004-05-14 07:28:25 51°28.008 2°59.901 45 13.7 41 20.1
2004-05-14 07:28:30 51°28.023 2°59.922 44.6 13.8 42 20.3
2004-05-14 07:28:35 51°28.036 2°59.943 45 13.7 43 20.2
2004-05-14 07:28:40 51°28.05 2°59.963 45.7 13.7 43 20.6
2004-05-14 07:28:44 51°28.062 2°59.979 45.7 13.7 42 20.9
2004-05-14 07:28:48 51°28.073 2°59.996 45.3 13.8 42 21
2004-05-14 07:28:55 51°28.093 3°0.024 44.4 13.7 41 20.4
2004-05-14 07:29:00 51°28.107 3°0.045 45 13.8 43 20.5
2004-05-14 07:29:04 51°28.119 3°0.061 45.3 13.8 42 20.4
2004-05-14 07:29:10 51°28.136 3°0.086 45.3 13.8 42 20.6
2004-05-14 07:29:14 51°28.147 3°0.102 45 13.8 41 20.7
2004-05-14 07:29:20 51°28.164 3°0.127 44.4 13.8 42 20.8
2004-05-14 07:29:24 51°28.176 3°0.144 44.9 13.8 42 21.2
2004-05-14 07:29:30 51°28.193 3°0.168 45.2 13.8 43 21
2004-05-14 07:29:34 51°28.204 3°0.185 45.5 13.8 42 20
2004-05-14 07:29:40 51°28.221 3°0.21 45.3 13.8 42 20.4
2004-05-14 07:29:45 51°28.235 3°0.23 45.2 13.8 42 20.6
2004-05-14 07:29:49 51°28.246 3°0.246 45.2 13.8 42 20.9
2004-05-14 07:29:55 51°28.263 3°0.271 45.4 13.8 42 21
2004-05-14 07:30:00 51°28.278 3°0.292 45.3 13.8 42 21
2004-05-14 07:30:04 51°28.289 3°0.308 45.3 13.8 42 21.2
2004-05-14 07:30:09 51°28.303 3°0.329 45.2 13.7 43 21.3
2004-05-14 07:30:14 51°28.317 3°0.349 45.7 13.7 42 21.5
2004-05-14 07:30:20 51°28.334 3°0.373 45.6 13.8 42 21.5
2004-05-14 07:30:24 51°28.346 3°0.39 45.2 13.6 42 21.3
2004-05-14 07:30:29 51°28.36 3°0.41 45.1 13.7 42 21.6
2004-05-14 07:30:34 51°28.374 3°0.43 45.3 13.9 42 21.7
2004-05-14 07:30:40 51°28.391 3°0.456 45.3 13.8 43 21.7
2004-05-14 07:30:44 51°28.402 3°0.472 45.6 13.9 42 21.6
2004-05-14 07:30:50 51°28.419 3°0.496 45.4 13.7 42 21.5
2004-05-14 07:30:55 51°28.434 3°0.517 45.3 13.7 42 21.5
2004-05-14 07:31:00 51°28.448 3°0.537 45.3 13.8 42 21.6
2004-05-14 07:31:04 51°28.459 3°0.554 45.2 13.8 42 21.6
2004-05-14 07:31:10 51°28.476 3°0.579 45.6 13.8 43 21.9
2004-05-14 07:31:15 51°28.491 3°0.599 45.9 13.9 42 21.8
2004-05-14 07:31:20 51°28.505 3°0.619 45 13.9 42 21.8
2004-05-14 07:31:25 51°28.519 3°0.64 44.9 13.7 43 21.5
2004-05-14 07:31:30 51°28.533 3°0.661 45.4 13.8 43 21.7
2004-05-14 07:31:35 51°28.547 3°0.682 45.8 13.8 42 21.9
2004-05-14 07:31:40 51°28.561 3°0.702 45.5 13.7 42 21.8
2004-05-14 07:31:44 51°28.573 3°0.718 45.2 13.8 41 21.8
2004-05-14 07:31:50 51°28.59 3°0.743 45 13.8 42 21.9
2004-05-14 07:31:55 51°28.604 3°0.764 45.3 13.9 43 22.1
2004-05-14 07:32:00 51°28.618 3°0.785 45.6 13.9 42 21.9
2004-05-14 07:32:05 51°28.633 3°0.805 45.1 13.9 41 22.1
2004-05-14 07:32:10 51°28.647 3°0.826 44.7 13.8 43 22.3
2004-05-14 07:32:14 51°28.658 3°0.842 45.5 13.8 43 22.1
2004-05-14 07:32:20 51°28.675 3°0.867 45.5 13.8 42 22.3
2004-05-14 07:32:25 51°28.69 3°0.888 45.3 13.8 42 22.5
2004-05-14 07:32:30 51°28.704 3°0.908 45 13.8 42 22.6
2004-05-14 07:32:35 51°28.718 3°0.929 45.1 13.8 43 22.4
2004-05-14 07:32:40 51°28.732 3°0.95 45.7 13.8 43 22.3
2004-05-14 07:32:44 51°28.743 3°0.967 45.8 13.9 43 22.4
2004-05-14 07:32:48 51°28.755 3°0.984 46.1 13.9 43 22.5
2004-05-14 07:32:55 51°28.774 3°1.013 45.7 13.9 43 22.5
2004-05-14 07:33:00 51°28.789 3°1.034 45.7 14 42 22.4
2004-05-14 07:33:05 51°28.803 3°1.055 45.5 14 42 22.4
2004-05-14 07:33:10 51°28.817 3°1.075 45.2 13.9 42 22.6
2004-05-14 07:33:15 51°28.832 3°1.096 44.9 13.9 42 22.6
2004-05-14 07:33:20 51°28.846 3°1.117 45 13.9 43 22.6
2004-05-14 07:33:25 51°28.86 3°1.137 45.1 13.9 42 22.9
2004-05-14 07:33:29 51°28.872 3°1.154 44.9 13.8 42 22.8
2004-05-14 07:33:34 51°28.886 3°1.175 45.3 13.9 42 22.7
2004-05-14 07:33:39 51°28.9 3°1.196 45.4 13.8 42 23.2
2004-05-14 07:33:44 51°28.914 3°1.216 45.4 14 42 23.2
2004-05-14 07:33:50 51°28.932 3°1.241 44.9 13.9 42 23.3
2004-05-14 07:33:55 51°28.946 3°1.262 45 13.8 43 23.3
2004-05-14 07:34:00 51°28.959 3°1.285 46.3 13.9 44 23.3
2004-05-14 07:34:04 51°28.969 3°1.303 49 14 48 23.4
2004-05-14 07:34:10 51°28.984 3°1.331 51.1 13.9 49 23.3
2004-05-14 07:34:15 51°28.997 3°1.355 52.2 13.8 50 23.2
2004-05-14 07:34:20 51°29.009 3°1.379 53.4 13.8 51 23.6
2004-05-14 07:34:25 51°29.021 3°1.404 54.4 14 52 23.5
2004-05-14 07:34:30 51°29.033 3°1.428 54.9 14 52 23.8
2004-05-14 07:34:34 51°29.042 3°1.448 55.5 14 53 24
2004-05-14 07:34:40 51°29.056 3°1.477 55.8 13.9 53 24
2004-05-14 07:34:44 51°29.065 3°1.497 55.2 13.9 52 24
2004-05-14 07:34:50 51°29.08 3°1.526 55.1 13.9 52 24
2004-05-14 07:34:55 51°29.092 3°1.55 55 13.9 52 23.8
2004-05-14 07:35:00 51°29.104 3°1.575 54.6 14 52 24
2004-05-14 07:35:04 51°29.113 3°1.594 54.8 13.9 52 24
2004-05-14 07:35:10 51°29.128 3°1.623 54.6 13.9 52 24.1
2004-05-14 07:35:15 51°29.14 3°1.647 55.1 14 52 24.1
2004-05-14 07:35:20 51°29.152 3°1.672 55.1 13.9 52 24.2
2004-05-14 07:35:24 51°29.161 3°1.692 55.1 14 52 24.2
2004-05-14 07:35:30 51°29.176 3°1.721 55.3 14.1 52 24.3
2004-05-14 07:35:34 51°29.185 3°1.741 55 14 52 24.4
2004-05-14 07:35:40 51°29.2 3°1.77 54.9 14.1 51 24.2
2004-05-14 07:35:44 51°29.21 3°1.789 54.7 14 51 24.4
2004-05-14 07:35:50 51°29.224 3°1.819 54.5 14 52 24.3